sensor_id;sensor_type;location;lat;lon;timestamp;pressure;altitude;pressure_sealevel;temperature;humidity
23589;BME280;11972;48.078;11.876;2022-09-03T00:01:23;95111.97;;;12.24;100.00
23589;BME280;11972;48.078;11.876;2022-09-03T00:10:04;95117.84;;;12.00;100.00
23589;BME280;11972;48.078;11.876;2022-09-03T00:14:15;95120.06;;;11.89;100.00
23589;BME280;11972;48.078;11.876;2022-09-03T00:18:21;95120.84;;;11.83;100.00
23589;BME280;11972;48.078;11.876;2022-09-03T00:22:27;95122.03;;;11.74;100.00
23589;BME280;11972;48.078;11.876;2022-09-03T00:26:33;95124.47;;;11.69;100.00
23589;BME280;11972;48.078;11.876;2022-09-03T00:30:34;95121.56;;;11.64;100.00
23589;BME280;11972;48.078;11.876;2022-09-03T00:34:37;95117.09;;;11.58;100.00
23589;BME280;11972;48.078;11.876;2022-09-03T00:38:40;95127.66;;;11.58;100.00
23589;BME280;11972;48.078;11.876;2022-09-03T00:42:52;95129.34;;;11.65;100.00
23589;BME280;11972;48.078;11.876;2022-09-03T00:47:02;95127.94;;;11.76;100.00
23589;BME280;11972;48.078;11.876;2022-09-03T01:00:09;95118.69;;;12.13;100.00
23589;BME280;11972;48.078;11.876;2022-09-03T01:04:34;95127.66;;;12.06;100.00
23589;BME280;11972;48.078;11.876;2022-09-03T01:22:03;95132.56;;;11.61;100.00
23589;BME280;11972;48.078;11.876;2022-09-03T01:31:00;95134.06;;;11.29;100.00
23589;BME280;11972;48.078;11.876;2022-09-03T01:39:15;95138.13;;;10.97;100.00
23589;BME280;11972;48.078;11.876;2022-09-03T01:43:54;95139.53;;;10.92;100.00
23589;BME280;11972;48.078;11.876;2022-09-03T01:52:16;95137.28;;;10.89;100.00
23589;BME280;11972;48.078;11.876;2022-09-03T02:01:06;95127.84;;;11.08;100.00
23589;BME280;11972;48.078;11.876;2022-09-03T02:05:17;95112.69;;;11.24;100.00
23589;BME280;11972;48.078;11.876;2022-09-03T02:09:18;95113.16;;;11.40;100.00
23589;BME280;11972;48.078;11.876;2022-09-03T02:13:43;95109.13;;;11.51;100.00
23589;BME280;11972;48.078;11.876;2022-09-03T02:17:46;95113.22;;;11.54;100.00
23589;BME280;11972;48.078;11.876;2022-09-03T02:21:54;95103.66;;;11.53;100.00
23589;BME280;11972;48.078;11.876;2022-09-03T02:25:57;95104.88;;;11.57;100.00
23589;BME280;11972;48.078;11.876;2022-09-03T02:29:59;95093.69;;;11.55;100.00
23589;BME280;11972;48.078;11.876;2022-09-03T02:33:59;95089.41;;;11.54;100.00
23589;BME280;11972;48.078;11.876;2022-09-03T02:38:32;95095.94;;;11.58;100.00
23589;BME280;11972;48.078;11.876;2022-09-03T02:42:32;95101.44;;;11.56;100.00
23589;BME280;11972;48.078;11.876;2022-09-03T02:46:38;95109.94;;;11.52;100.00
23589;BME280;11972;48.078;11.876;2022-09-03T02:50:40;95106.91;;;11.48;100.00
23589;BME280;11972;48.078;11.876;2022-09-03T02:54:41;95115.63;;;11.49;100.00
23589;BME280;11972;48.078;11.876;2022-09-03T02:58:44;95113.75;;;11.42;100.00
23589;BME280;11972;48.078;11.876;2022-09-03T03:02:44;95102.34;;;11.35;100.00
23589;BME280;11972;48.078;11.876;2022-09-03T03:06:46;95100.28;;;11.24;100.00
23589;BME280;11972;48.078;11.876;2022-09-03T03:10:47;95109.34;;;11.15;100.00
23589;BME280;11972;48.078;11.876;2022-09-03T03:14:48;95115.22;;;11.04;100.00
23589;BME280;11972;48.078;11.876;2022-09-03T03:18:48;95117.16;;;10.88;100.00
23589;BME280;11972;48.078;11.876;2022-09-03T03:22:49;95123.16;;;10.76;100.00
23589;BME280;11972;48.078;11.876;2022-09-03T03:26:50;95126.75;;;10.68;100.00
23589;BME280;11972;48.078;11.876;2022-09-03T03:30:50;95118.59;;;10.63;100.00
23589;BME280;11972;48.078;11.876;2022-09-03T03:34:51;95115.53;;;10.59;100.00
23589;BME280;11972;48.078;11.876;2022-09-03T03:38:53;95120.13;;;10.51;100.00
23589;BME280;11972;48.078;11.876;2022-09-03T03:42:56;95129.22;;;10.41;100.00
23589;BME280;11972;48.078;11.876;2022-09-03T03:46:57;95126.88;;;10.32;100.00
23589;BME280;11972;48.078;11.876;2022-09-03T03:51:02;95131.72;;;10.28;100.00
23589;BME280;11972;48.078;11.876;2022-09-03T03:55:04;95123.91;;;10.20;100.00
23589;BME280;11972;48.078;11.876;2022-09-03T03:59:05;95123.03;;;10.13;100.00
23589;BME280;11972;48.078;11.876;2022-09-03T04:03:06;95125.41;;;10.08;100.00
23589;BME280;11972;48.078;11.876;2022-09-03T04:07:06;95129.44;;;10.04;100.00
23589;BME280;11972;48.078;11.876;2022-09-03T04:11:09;95126.19;;;10.02;100.00
23589;BME280;11972;48.078;11.876;2022-09-03T04:15:10;95124.16;;;10.04;100.00
23589;BME280;11972;48.078;11.876;2022-09-03T04:19:10;95129.81;;;10.01;100.00
23589;BME280;11972;48.078;11.876;2022-09-03T04:23:11;95123.91;;;9.99;100.00
23589;BME280;11972;48.078;11.876;2022-09-03T04:27:11;95119.28;;;10.01;100.00
23589;BME280;11972;48.078;11.876;2022-09-03T04:31:14;95123.53;;;10.02;100.00
23589;BME280;11972;48.078;11.876;2022-09-03T04:35:14;95115.88;;;10.07;100.00
23589;BME280;11972;48.078;11.876;2022-09-03T04:39:16;95114.69;;;10.09;100.00
23589;BME280;11972;48.078;11.876;2022-09-03T04:43:17;95118.94;;;10.10;100.00
23589;BME280;11972;48.078;11.876;2022-09-03T04:47:17;95125.13;;;10.17;100.00
23589;BME280;11972;48.078;11.876;2022-09-03T04:51:24;95134.75;;;10.25;100.00
23589;BME280;11972;48.078;11.876;2022-09-03T04:55:26;95130.97;;;10.34;100.00
23589;BME280;11972;48.078;11.876;2022-09-03T04:59:26;95126.16;;;10.44;100.00
23589;BME280;11972;48.078;11.876;2022-09-03T05:03:26;95130.31;;;10.54;100.00
23589;BME280;11972;48.078;11.876;2022-09-03T05:07:29;95138.78;;;10.71;100.00
23589;BME280;11972;48.078;11.876;2022-09-03T05:11:37;95129.34;;;10.89;100.00
23589;BME280;11972;48.078;11.876;2022-09-03T05:15:37;95144.50;;;11.09;100.00
23589;BME280;11972;48.078;11.876;2022-09-03T05:19:38;95137.28;;;11.24;100.00
23589;BME280;11972;48.078;11.876;2022-09-03T05:23:40;95149.16;;;11.41;100.00
23589;BME280;11972;48.078;11.876;2022-09-03T05:27:41;95153.75;;;11.61;100.00
23589;BME280;11972;48.078;11.876;2022-09-03T05:31:42;95143.03;;;11.82;100.00
23589;BME280;11972;48.078;11.876;2022-09-03T05:35:42;95142.50;;;12.07;100.00
23589;BME280;11972;48.078;11.876;2022-09-03T05:39:42;95145.63;;;12.30;100.00
23589;BME280;11972;48.078;11.876;2022-09-03T05:43:43;95128.50;;;12.53;100.00
23589;BME280;11972;48.078;11.876;2022-09-03T05:47:44;95144.19;;;12.74;100.00
23589;BME280;11972;48.078;11.876;2022-09-03T05:51:44;95152.75;;;12.96;100.00
23589;BME280;11972;48.078;11.876;2022-09-03T05:55:54;95157.59;;;13.19;100.00
23589;BME280;11972;48.078;11.876;2022-09-03T05:59:54;95175.94;;;13.40;100.00
23589;BME280;11972;48.078;11.876;2022-09-03T06:03:59;95185.69;;;13.53;100.00
23589;BME280;11972;48.078;11.876;2022-09-03T06:08:00;95225.25;;;13.68;100.00
23589;BME280;11972;48.078;11.876;2022-09-03T06:12:01;95233.81;;;13.83;100.00
23589;BME280;11972;48.078;11.876;2022-09-03T06:16:04;95218.50;;;13.72;100.00
23589;BME280;11972;48.078;11.876;2022-09-03T06:20:05;95211.59;;;13.71;100.00
23589;BME280;11972;48.078;11.876;2022-09-03T06:24:05;95198.25;;;13.84;100.00
23589;BME280;11972;48.078;11.876;2022-09-03T06:28:06;95201.56;;;14.18;100.00
23589;BME280;11972;48.078;11.876;2022-09-03T06:32:08;95203.88;;;14.53;100.00
23589;BME280;11972;48.078;11.876;2022-09-03T06:36:11;95203.41;;;14.87;100.00
23589;BME280;11972;48.078;11.876;2022-09-03T06:40:12;95213.81;;;15.14;100.00
23589;BME280;11972;48.078;11.876;2022-09-03T06:44:13;95213.78;;;15.21;100.00
23589;BME280;11972;48.078;11.876;2022-09-03T06:48:14;95222.13;;;15.24;100.00
23589;BME280;11972;48.078;11.876;2022-09-03T06:52:14;95221.53;;;15.22;100.00
23589;BME280;11972;48.078;11.876;2022-09-03T06:56:17;95220.97;;;15.38;100.00
23589;BME280;11972;48.078;11.876;2022-09-03T07:00:18;95214.66;;;15.58;100.00
23589;BME280;11972;48.078;11.876;2022-09-03T07:04:20;95221.13;;;16.05;100.00
23589;BME280;11972;48.078;11.876;2022-09-03T07:08:23;95209.03;;;16.51;100.00
23589;BME280;11972;48.078;11.876;2022-09-03T07:12:25;95214.28;;;16.88;100.00
23589;BME280;11972;48.078;11.876;2022-09-03T07:16:27;95217.47;;;17.20;100.00
23589;BME280;11972;48.078;11.876;2022-09-03T07:20:28;95213.38;;;17.65;100.00
23589;BME280;11972;48.078;11.876;2022-09-03T07:24:28;95221.13;;;18.13;100.00
23589;BME280;11972;48.078;11.876;2022-09-03T07:28:30;95229.03;;;18.08;100.00
23589;BME280;11972;48.078;11.876;2022-09-03T07:32:33;95236.34;;;18.13;100.00
23589;BME280;11972;48.078;11.876;2022-09-03T07:36:41;95239.34;;;18.28;100.00
23589;BME280;11972;48.078;11.876;2022-09-03T07:40:42;95231.81;;;18.13;100.00
23589;BME280;11972;48.078;11.876;2022-09-03T07:44:42;95230.97;;;18.24;100.00
23589;BME280;11972;48.078;11.876;2022-09-03T07:48:45;95230.69;;;18.38;100.00
23589;BME280;11972;48.078;11.876;2022-09-03T07:52:45;95233.47;;;18.43;100.00
23589;BME280;11972;48.078;11.876;2022-09-03T07:56:46;95241.97;;;18.40;100.00
23589;BME280;11972;48.078;11.876;2022-09-03T08:00:48;95238.72;;;18.66;100.00
23589;BME280;11972;48.078;11.876;2022-09-03T08:04:48;95235.31;;;18.82;100.00
23589;BME280;11972;48.078;11.876;2022-09-03T08:08:56;95253.50;;;18.97;100.00
23589;BME280;11972;48.078;11.876;2022-09-03T08:12:58;95259.31;;;18.77;100.00
23589;BME280;11972;48.078;11.876;2022-09-03T08:16:58;95244.47;;;18.58;100.00
23589;BME280;11972;48.078;11.876;2022-09-03T08:20:59;95242.84;;;18.57;100.00
23589;BME280;11972;48.078;11.876;2022-09-03T08:24:59;95249.88;;;18.75;100.00
23589;BME280;11972;48.078;11.876;2022-09-03T08:29:00;95248.50;;;19.18;100.00
23589;BME280;11972;48.078;11.876;2022-09-03T08:33:01;95251.50;;;19.72;100.00
23589;BME280;11972;48.078;11.876;2022-09-03T08:37:03;95240.03;;;19.93;100.00
23589;BME280;11972;48.078;11.876;2022-09-03T08:41:13;95248.81;;;20.32;100.00
23589;BME280;11972;48.078;11.876;2022-09-03T08:45:19;95246.09;;;20.71;100.00
23589;BME280;11972;48.078;11.876;2022-09-03T08:49:32;95242.94;;;20.79;100.00
23589;BME280;11972;48.078;11.876;2022-09-03T08:53:44;95245.50;;;20.47;100.00
23589;BME280;11972;48.078;11.876;2022-09-03T08:57:48;95237.75;;;20.95;100.00
23589;BME280;11972;48.078;11.876;2022-09-03T09:02:03;95242.53;;;20.93;100.00
23589;BME280;11972;48.078;11.876;2022-09-03T09:06:31;95243.38;;;21.25;100.00
23589;BME280;11972;48.078;11.876;2022-09-03T09:10:47;95248.22;;;21.23;100.00
23589;BME280;11972;48.078;11.876;2022-09-03T09:15:23;95248.41;;;21.17;100.00
23589;BME280;11972;48.078;11.876;2022-09-03T09:23:32;95243.34;;;21.20;100.00
23589;BME280;11972;48.078;11.876;2022-09-03T09:27:34;95238.41;;;21.07;100.00
23589;BME280;11972;48.078;11.876;2022-09-03T09:31:34;95239.19;;;20.80;100.00
23589;BME280;11972;48.078;11.876;2022-09-03T09:35:35;95234.75;;;20.91;100.00
23589;BME280;11972;48.078;11.876;2022-09-03T09:39:36;95231.47;;;21.16;100.00
23589;BME280;11972;48.078;11.876;2022-09-03T09:43:37;95233.00;;;21.34;100.00
23589;BME280;11972;48.078;11.876;2022-09-03T09:47:38;95244.13;;;21.48;100.00
23589;BME280;11972;48.078;11.876;2022-09-03T09:51:39;95243.09;;;21.54;100.00
23589;BME280;11972;48.078;11.876;2022-09-03T09:55:54;95239.75;;;21.37;100.00
23589;BME280;11972;48.078;11.876;2022-09-03T10:00:10;95241.00;;;21.61;100.00
23589;BME280;11972;48.078;11.876;2022-09-03T10:04:23;95226.97;;;21.54;100.00
23589;BME280;11972;48.078;11.876;2022-09-03T10:08:26;95230.91;;;21.78;100.00
23589;BME280;11972;48.078;11.876;2022-09-03T10:12:34;95223.84;;;21.72;100.00
23589;BME280;11972;48.078;11.876;2022-09-03T10:16:40;95224.41;;;22.17;100.00
23589;BME280;11972;48.078;11.876;2022-09-03T10:24:58;95229.06;;;22.32;100.00
23589;BME280;11972;48.078;11.876;2022-09-03T10:29:03;95216.47;;;22.52;100.00
23589;BME280;11972;48.078;11.876;2022-09-03T10:33:11;95230.34;;;23.12;100.00
23589;BME280;11972;48.078;11.876;2022-09-03T10:37:17;95238.47;;;23.58;100.00
23589;BME280;11972;48.078;11.876;2022-09-03T10:41:32;95234.09;;;23.98;100.00
23589;BME280;11972;48.078;11.876;2022-09-03T10:45:52;95236.22;;;24.16;100.00
23589;BME280;11972;48.078;11.876;2022-09-03T10:50:15;95228.66;;;24.13;100.00
23589;BME280;11972;48.078;11.876;2022-09-03T11:07:04;95205.22;;;24.09;100.00
23589;BME280;11972;48.078;11.876;2022-09-03T11:11:46;95205.50;;;23.97;100.00
23589;BME280;11972;48.078;11.876;2022-09-03T11:15:53;95202.84;;;23.92;100.00
23589;BME280;11972;48.078;11.876;2022-09-03T11:20:02;95202.91;;;23.66;100.00
23589;BME280;11972;48.078;11.876;2022-09-03T11:24:20;95201.25;;;23.40;100.00
23589;BME280;11972;48.078;11.876;2022-09-03T11:28:43;95193.19;;;23.50;100.00
23589;BME280;11972;48.078;11.876;2022-09-03T11:32:59;95182.38;;;23.45;100.00
23589;BME280;11972;48.078;11.876;2022-09-03T11:41:25;95185.09;;;23.35;100.00
23589;BME280;11972;48.078;11.876;2022-09-03T11:49:31;95169.66;;;23.86;100.00
23589;BME280;11972;48.078;11.876;2022-09-03T11:53:35;95170.78;;;24.50;100.00
23589;BME280;11972;48.078;11.876;2022-09-03T11:57:40;95177.38;;;25.17;100.00
23589;BME280;11972;48.078;11.876;2022-09-03T12:01:57;95164.66;;;25.81;100.00
23589;BME280;11972;48.078;11.876;2022-09-03T12:10:50;95161.50;;;25.69;100.00
23589;BME280;11972;48.078;11.876;2022-09-03T12:27:44;95147.72;;;25.41;100.00
23589;BME280;11972;48.078;11.876;2022-09-03T12:31:47;95142.22;;;24.83;100.00
23589;BME280;11972;48.078;11.876;2022-09-03T12:35:59;95139.22;;;24.90;100.00
23589;BME280;11972;48.078;11.876;2022-09-03T12:40:00;95139.81;;;24.76;100.00
23589;BME280;11972;48.078;11.876;2022-09-03T12:44:00;95138.97;;;24.32;100.00
23589;BME280;11972;48.078;11.876;2022-09-03T12:48:11;95141.19;;;24.24;100.00
23589;BME280;11972;48.078;11.876;2022-09-03T12:52:30;95138.50;;;24.24;100.00
23589;BME280;11972;48.078;11.876;2022-09-03T12:56:33;95140.06;;;24.41;100.00
23589;BME280;11972;48.078;11.876;2022-09-03T13:00:40;95135.41;;;24.57;100.00
23589;BME280;11972;48.078;11.876;2022-09-03T13:04:42;95124.50;;;24.67;100.00
23589;BME280;11972;48.078;11.876;2022-09-03T13:08:46;95121.47;;;24.79;100.00
23589;BME280;11972;48.078;11.876;2022-09-03T13:12:48;95115.41;;;24.92;100.00
23589;BME280;11972;48.078;11.876;2022-09-03T13:16:59;95107.72;;;25.14;100.00
23589;BME280;11972;48.078;11.876;2022-09-03T13:21:17;95100.47;;;25.34;100.00
23589;BME280;11972;48.078;11.876;2022-09-03T13:25:48;95103.94;;;25.63;100.00
23589;BME280;11972;48.078;11.876;2022-09-03T13:30:11;95104.44;;;25.94;100.00
23589;BME280;11972;48.078;11.876;2022-09-03T13:34:25;95107.03;;;26.05;100.00
23589;BME280;11972;48.078;11.876;2022-09-03T13:39:02;95107.22;;;25.89;100.00
23589;BME280;11972;48.078;11.876;2022-09-03T13:47:27;95117.66;;;26.63;100.00
23589;BME280;11972;48.078;11.876;2022-09-03T13:51:37;95128.69;;;27.37;100.00
23589;BME280;11972;48.078;11.876;2022-09-03T13:55:50;95128.59;;;28.02;100.00
23589;BME280;11972;48.078;11.876;2022-09-03T14:00:04;95111.69;;;28.19;100.00
23589;BME280;11972;48.078;11.876;2022-09-03T14:04:16;95114.63;;;27.49;100.00
23589;BME280;11972;48.078;11.876;2022-09-03T14:08:50;95117.09;;;26.23;100.00
23589;BME280;11972;48.078;11.876;2022-09-03T14:13:15;95122.34;;;25.90;100.00
23589;BME280;11972;48.078;11.876;2022-09-03T14:21:57;95135.31;;;25.01;100.00
23589;BME280;11972;48.078;11.876;2022-09-03T14:26:00;95131.50;;;24.73;100.00
23589;BME280;11972;48.078;11.876;2022-09-03T14:39:30;95140.94;;;23.25;100.00
23589;BME280;11972;48.078;11.876;2022-09-03T14:43:50;95145.72;;;22.72;100.00
23589;BME280;11972;48.078;11.876;2022-09-03T14:48:11;95155.34;;;22.38;100.00
23589;BME280;11972;48.078;11.876;2022-09-03T14:56:48;95179.72;;;20.94;100.00
23589;BME280;11972;48.078;11.876;2022-09-03T15:05:09;95262.25;;;18.64;100.00
23589;BME280;11972;48.078;11.876;2022-09-03T15:09:34;95290.75;;;17.06;100.00
23589;BME280;11972;48.078;11.876;2022-09-03T15:13:48;95305.31;;;16.25;100.00
23589;BME280;11972;48.078;11.876;2022-09-03T15:22:11;95321.16;;;15.26;100.00
23589;BME280;11972;48.078;11.876;2022-09-03T15:30:43;95320.16;;;15.27;100.00
23589;BME280;11972;48.078;11.876;2022-09-03T15:34:58;95334.66;;;15.31;100.00
23589;BME280;11972;48.078;11.876;2022-09-03T15:39:43;95344.81;;;15.41;100.00
23589;BME280;11972;48.078;11.876;2022-09-03T15:43:29;95359.59;;;15.62;100.00
23589;BME280;11972;48.078;11.876;2022-09-03T15:47:37;95349.13;;;15.67;100.00
23589;BME280;11972;48.078;11.876;2022-09-03T15:51:58;95330.09;;;15.63;100.00
23589;BME280;11972;48.078;11.876;2022-09-03T16:00:13;95342.19;;;15.34;100.00
23589;BME280;11972;48.078;11.876;2022-09-03T16:08:32;95347.19;;;15.24;100.00
23589;BME280;11972;48.078;11.876;2022-09-03T16:17:33;95325.75;;;15.19;100.00
23589;BME280;11972;48.078;11.876;2022-09-03T16:21:43;95326.97;;;15.17;100.00
23589;BME280;11972;48.078;11.876;2022-09-03T16:25:50;95327.59;;;15.19;100.00
23589;BME280;11972;48.078;11.876;2022-09-03T16:30:00;95326.31;;;15.21;100.00
23589;BME280;11972;48.078;11.876;2022-09-03T16:34:23;95319.69;;;15.30;100.00
23589;BME280;11972;48.078;11.876;2022-09-03T16:42:52;95293.69;;;17.16;100.00
23589;BME280;11972;48.078;11.876;2022-09-03T16:51:43;95275.81;;;18.34;100.00
23589;BME280;11972;48.078;11.876;2022-09-03T17:00:09;95269.75;;;18.67;100.00
23589;BME280;11972;48.078;11.876;2022-09-03T17:08:52;95262.34;;;18.69;100.00
23589;BME280;11972;48.078;11.876;2022-09-03T17:25:38;95260.31;;;17.49;100.00
23589;BME280;11972;48.078;11.876;2022-09-03T17:38:18;95274.56;;;16.59;100.00
23589;BME280;11972;48.078;11.876;2022-09-03T17:42:30;95267.66;;;16.21;100.00
23589;BME280;11972;48.078;11.876;2022-09-03T17:46:38;95272.25;;;15.77;100.00
23589;BME280;11972;48.078;11.876;2022-09-03T17:55:58;95285.16;;;14.99;100.00
23589;BME280;11972;48.078;11.876;2022-09-03T18:00:05;95288.59;;;14.74;100.00
23589;BME280;11972;48.078;11.876;2022-09-03T18:04:17;95285.06;;;14.49;100.00
23589;BME280;11972;48.078;11.876;2022-09-03T18:08:58;95296.53;;;14.29;100.00
23589;BME280;11972;48.078;11.876;2022-09-03T18:17:30;95304.41;;;13.98;100.00
23589;BME280;11972;48.078;11.876;2022-09-03T18:21:36;95311.38;;;13.85;100.00
23589;BME280;11972;48.078;11.876;2022-09-03T18:25:59;95303.63;;;13.77;100.00
23589;BME280;11972;48.078;11.876;2022-09-03T18:30:19;95316.72;;;13.65;100.00
23589;BME280;11972;48.078;11.876;2022-09-03T18:34:38;95321.22;;;13.58;100.00
23589;BME280;11972;48.078;11.876;2022-09-03T18:39:27;95326.94;;;13.49;100.00
23589;BME280;11972;48.078;11.876;2022-09-03T18:43:59;95320.84;;;13.42;100.00
23589;BME280;11972;48.078;11.876;2022-09-03T18:52:55;95339.19;;;13.36;100.00
23589;BME280;11972;48.078;11.876;2022-09-03T18:57:25;95328.16;;;13.26;100.00
23589;BME280;11972;48.078;11.876;2022-09-03T19:01:47;95334.69;;;13.24;100.00
23589;BME280;11972;48.078;11.876;2022-09-03T19:10:36;95335.06;;;13.14;100.00
23589;BME280;11972;48.078;11.876;2022-09-03T19:15:20;95333.63;;;13.05;100.00
23589;BME280;11972;48.078;11.876;2022-09-03T19:24:12;95342.75;;;12.82;100.00
23589;BME280;11972;48.078;11.876;2022-09-03T19:28:32;95351.31;;;12.78;100.00
23589;BME280;11972;48.078;11.876;2022-09-03T19:37:36;95360.63;;;12.67;100.00
23589;BME280;11972;48.078;11.876;2022-09-03T19:42:22;95360.63;;;12.67;100.00
23589;BME280;11972;48.078;11.876;2022-09-03T19:46:49;95367.97;;;12.65;100.00
23589;BME280;11972;48.078;11.876;2022-09-03T19:51:15;95382.00;;;12.59;100.00
23589;BME280;11972;48.078;11.876;2022-09-03T19:55:38;95385.09;;;12.62;100.00
23589;BME280;11972;48.078;11.876;2022-09-03T19:59:59;95389.16;;;12.58;100.00
23589;BME280;11972;48.078;11.876;2022-09-03T20:04:22;95392.78;;;12.51;100.00
23589;BME280;11972;48.078;11.876;2022-09-03T20:08:46;95395.22;;;12.46;100.00
23589;BME280;11972;48.078;11.876;2022-09-03T20:13:15;95391.13;;;12.43;100.00
23589;BME280;11972;48.078;11.876;2022-09-03T20:21:53;95396.56;;;12.28;100.00
23589;BME280;11972;48.078;11.876;2022-09-03T20:30:17;95396.72;;;12.20;100.00
23589;BME280;11972;48.078;11.876;2022-09-03T20:34:30;95410.75;;;12.21;100.00
23589;BME280;11972;48.078;11.876;2022-09-03T20:51:48;95407.31;;;12.20;100.00
23589;BME280;11972;48.078;11.876;2022-09-03T20:56:00;95416.25;;;12.19;100.00
23589;BME280;11972;48.078;11.876;2022-09-03T21:04:46;95419.69;;;12.13;100.00
23589;BME280;11972;48.078;11.876;2022-09-03T21:18:17;95428.19;;;12.02;100.00
23589;BME280;11972;48.078;11.876;2022-09-03T21:27:07;95436.16;;;12.08;100.00
23589;BME280;11972;48.078;11.876;2022-09-03T21:31:22;95432.06;;;12.06;100.00
23589;BME280;11972;48.078;11.876;2022-09-03T21:35:33;95438.31;;;11.98;100.00
23589;BME280;11972;48.078;11.876;2022-09-03T21:39:41;95443.19;;;11.95;100.00
23589;BME280;11972;48.078;11.876;2022-09-03T21:43:59;95447.47;;;11.96;100.00
23589;BME280;11972;48.078;11.876;2022-09-03T21:48:10;95440.16;;;11.98;100.00
23589;BME280;11972;48.078;11.876;2022-09-03T21:52:17;95441.78;;;11.99;100.00
23589;BME280;11972;48.078;11.876;2022-09-03T22:00:27;95442.38;;;11.94;100.00
23589;BME280;11972;48.078;11.876;2022-09-03T22:04:34;95432.38;;;11.89;100.00
23589;BME280;11972;48.078;11.876;2022-09-03T22:08:42;95435.00;;;11.89;100.00
23589;BME280;11972;48.078;11.876;2022-09-03T22:29:47;95424.16;;;11.63;100.00
23589;BME280;11972;48.078;11.876;2022-09-03T22:34:20;95428.84;;;11.61;100.00
23589;BME280;11972;48.078;11.876;2022-09-03T22:42:46;95434.63;;;11.50;100.00
23589;BME280;11972;48.078;11.876;2022-09-03T22:51:01;95438.03;;;11.43;100.00
23589;BME280;11972;48.078;11.876;2022-09-03T22:55:32;95433.13;;;11.40;100.00
23589;BME280;11972;48.078;11.876;2022-09-03T22:59:42;95436.53;;;11.34;100.00
23589;BME280;11972;48.078;11.876;2022-09-03T23:04:00;95430.63;;;11.32;100.00
23589;BME280;11972;48.078;11.876;2022-09-03T23:08:08;95431.00;;;11.29;100.00
23589;BME280;11972;48.078;11.876;2022-09-03T23:12:22;95437.66;;;11.25;100.00
23589;BME280;11972;48.078;11.876;2022-09-03T23:16:44;95430.09;;;11.22;100.00
23589;BME280;11972;48.078;11.876;2022-09-03T23:25:04;95439.03;;;11.21;100.00
23589;BME280;11972;48.078;11.876;2022-09-03T23:29:17;95435.75;;;11.19;100.00
23589;BME280;11972;48.078;11.876;2022-09-03T23:33:19;95436.16;;;11.16;100.00
23589;BME280;11972;48.078;11.876;2022-09-03T23:41:48;95440.75;;;11.07;100.00
23589;BME280;11972;48.078;11.876;2022-09-03T23:46:04;95439.28;;;11.05;100.00
23589;BME280;11972;48.078;11.876;2022-09-03T23:50:34;95432.94;;;10.99;100.00
23589;BME280;11972;48.078;11.876;2022-09-03T23:58:47;95435.50;;;10.92;100.00
